createdAt,value
2023-04-17T00:01:35.789Z,10.63
2023-04-17T00:07:07.197Z,10.68
2023-04-17T00:12:38.894Z,10.68
2023-04-17T00:18:10.608Z,10.64
2023-04-17T00:23:42.568Z,10.61
2023-04-17T00:29:20.712Z,10.67
2023-04-17T00:34:54.493Z,10.62
2023-04-17T00:40:23.959Z,10.63
2023-04-17T00:45:55.719Z,10.59
2023-04-17T00:51:27.560Z,10.55
2023-04-17T00:56:59.359Z,10.51
2023-04-17T01:02:31.213Z,10.58
2023-04-17T01:08:02.568Z,10.54
2023-04-17T01:13:34.397Z,10.45
2023-04-17T01:19:06.166Z,10.58
2023-04-17T01:24:37.816Z,10.46
2023-04-17T01:30:16.025Z,10.46
2023-04-17T01:35:47.715Z,10.42
2023-04-17T01:41:19.336Z,10.26
2023-04-17T01:46:51.302Z,10.11
2023-04-17T01:52:22.981Z,10.37
2023-04-17T01:57:54.750Z,10.45
2023-04-17T02:03:26.650Z,10.48
2023-04-17T02:08:58.162Z,10.47
2023-04-17T02:14:29.864Z,10.32
2023-04-17T02:20:01.472Z,9.8
2023-04-17T02:25:33.354Z,9.98
2023-04-17T02:31:09.489Z,10.33
2023-04-17T02:36:41.253Z,10.3
2023-04-17T02:42:12.991Z,10.11
2023-04-17T02:47:44.471Z,10.19
2023-04-17T02:53:16.522Z,10.21
2023-04-17T02:58:47.892Z,10.32
2023-04-17T03:04:19.695Z,10.28
2023-04-17T03:09:51.546Z,10.25
2023-04-17T03:15:23.097Z,10.23
2023-04-17T03:20:55.007Z,10.27
2023-04-17T03:26:26.716Z,10.29
2023-04-17T03:32:04.688Z,10.35
2023-04-17T03:37:36.468Z,10.29
2023-04-17T03:43:08.276Z,10.27
2023-04-17T03:48:40.219Z,10.37
2023-04-17T03:54:11.541Z,10.33
2023-04-17T03:59:43.241Z,10.36
2023-04-17T04:05:15.112Z,10.4
2023-04-17T04:10:46.905Z,10.24
2023-04-17T04:16:18.701Z,10.37
2023-04-17T04:21:50.351Z,10.36
2023-04-17T04:27:21.843Z,10.28
2023-04-17T04:32:58.390Z,10.17
2023-04-17T04:38:29.730Z,10.21
2023-04-17T04:44:01.454Z,10.33
2023-04-17T04:49:33.364Z,10.34
2023-04-17T04:55:05.215Z,10.33
2023-04-17T05:00:36.910Z,10.18
2023-04-17T05:06:08.377Z,10.31
2023-04-17T05:11:40.300Z,10.32
2023-04-17T05:17:11.799Z,10.23
2023-04-17T05:22:43.547Z,10.12
2023-04-17T05:28:16.919Z,10.12
2023-04-17T05:33:51.367Z,10.26
2023-04-17T05:39:23.101Z,10.27
2023-04-17T05:44:54.834Z,10.33
2023-04-17T05:50:26.766Z,10.24
2023-04-17T05:55:58.340Z,10.1
2023-04-17T06:01:30.123Z,10.22
2023-04-17T06:07:01.744Z,10.32
2023-04-17T06:12:33.435Z,10.23
2023-04-17T06:18:05.426Z,10.33
2023-04-17T06:23:37.084Z,10.25
2023-04-17T06:29:08.593Z,10.43
2023-04-17T06:34:58.425Z,10.43
2023-04-17T06:40:16.462Z,10.49
2023-04-17T06:45:48.375Z,10.13
2023-04-17T06:51:19.907Z,10.23
2023-04-17T06:56:51.617Z,10.05
2023-04-17T07:02:23.743Z,10.17
2023-04-17T07:07:55.064Z,10.12
2023-04-17T07:13:26.759Z,10.21
2023-04-17T07:18:58.692Z,10.45
2023-04-17T07:24:30.193Z,10.24
2023-04-17T07:30:01.960Z,10.37
2023-04-17T07:35:38.133Z,10.35
2023-04-17T07:41:09.940Z,10.4
2023-04-17T07:46:41.561Z,10.46
2023-04-17T07:52:13.459Z,10.39
2023-04-17T07:57:44.989Z,10.25
2023-04-17T08:03:16.877Z,10.35
2023-04-17T08:08:48.432Z,10.77
2023-04-17T08:14:20.164Z,10.62
2023-04-17T08:19:51.876Z,10.28
2023-04-17T08:25:23.732Z,10.66
2023-04-17T08:30:55.343Z,10.91
2023-04-17T08:36:33.581Z,10.77
2023-04-17T08:42:05.198Z,10.77
2023-04-17T08:47:37.083Z,10.7
2023-04-17T08:53:08.599Z,10.8
2023-04-17T08:58:40.466Z,10.6
2023-04-17T09:04:12.096Z,10.66
2023-04-17T09:09:43.914Z,10.85
2023-04-17T09:15:15.630Z,11.05
2023-04-17T09:20:47.820Z,11.0
2023-04-17T09:26:18.989Z,11.01
2023-04-17T09:31:50.704Z,11.24
2023-04-17T09:37:26.934Z,11.19
2023-04-17T09:42:58.673Z,11.21
2023-04-17T09:48:30.282Z,11.34
2023-04-17T09:54:01.959Z,11.31
2023-04-17T09:59:33.849Z,11.23
2023-04-17T10:05:05.477Z,11.32
2023-04-17T10:10:37.204Z,11.54
2023-04-17T10:16:09.146Z,11.72
2023-04-17T10:21:40.606Z,11.72
2023-04-17T10:27:12.570Z,11.94
2023-04-17T10:32:44.129Z,11.81
2023-04-17T10:38:22.369Z,11.54
2023-04-17T10:43:54.330Z,11.77
2023-04-17T10:49:25.802Z,11.78
2023-04-17T10:54:57.525Z,11.85
2023-04-17T11:00:29.770Z,11.79
2023-04-17T11:06:01.011Z,11.9
2023-04-17T11:11:43.256Z,12.03
2023-04-17T11:17:04.437Z,11.88
2023-04-17T11:22:36.162Z,11.87
2023-04-17T11:28:08.044Z,12.1
2023-04-17T11:33:39.650Z,11.74
2023-04-17T11:39:15.988Z,12.11
2023-04-17T11:44:47.456Z,12.05
2023-04-17T11:50:19.187Z,11.96
2023-04-17T11:55:51.228Z,12.0
2023-04-17T12:01:22.786Z,12.29
2023-04-17T12:06:54.344Z,12.24
2023-04-17T12:12:26.301Z,12.11
2023-04-17T12:17:57.953Z,12.34
2023-04-17T12:23:29.749Z,12.91
2023-04-17T12:29:01.313Z,13.32
2023-04-17T12:34:33.012Z,13.22
2023-04-17T12:40:09.155Z,13.5
2023-04-17T12:45:42.481Z,13.09
2023-04-17T12:51:12.596Z,13.09
2023-04-17T12:56:44.442Z,12.37
2023-04-17T13:02:16.202Z,12.69
2023-04-17T13:07:47.934Z,12.55
2023-04-17T13:13:19.465Z,12.92
2023-04-17T13:18:51.291Z,12.61
2023-04-17T13:24:23.185Z,12.64
2023-04-17T13:29:54.627Z,12.32
2023-04-17T13:35:26.510Z,12.5
2023-04-17T13:41:02.513Z,12.46
2023-04-17T13:46:34.191Z,12.4
2023-04-17T13:52:05.978Z,12.53
2023-04-17T13:57:37.652Z,12.41
2023-04-17T14:03:09.442Z,12.68
2023-04-17T14:08:42.958Z,12.76
2023-04-17T14:14:13.083Z,12.86
2023-04-17T14:19:44.744Z,12.82
2023-04-17T14:25:16.341Z,12.97
2023-04-17T14:30:48.137Z,12.71
2023-04-17T14:36:19.862Z,12.86
2023-04-17T14:41:55.834Z,12.87
2023-04-17T14:47:29.849Z,12.87
2023-04-17T14:52:59.611Z,13.14
2023-04-17T14:58:31.251Z,13.08
2023-04-17T15:04:02.863Z,13.02
2023-04-17T15:09:34.420Z,12.99
2023-04-17T15:15:06.731Z,12.78
2023-04-17T15:20:38.050Z,12.78
2023-04-17T15:26:09.938Z,12.93
2023-04-17T15:31:42.244Z,12.46
2023-04-17T15:37:13.351Z,12.64
2023-04-17T15:42:51.296Z,12.49
2023-04-17T15:48:23.187Z,12.83
2023-04-17T15:53:54.715Z,12.74
2023-04-17T15:59:26.979Z,12.75
2023-04-17T16:04:58.387Z,12.77
2023-04-17T16:10:30.685Z,12.65
2023-04-17T16:16:01.650Z,12.74
2023-04-17T16:21:33.551Z,12.37
2023-04-17T16:27:05.027Z,12.53
2023-04-17T16:32:37.047Z,12.37
2023-04-17T16:38:08.674Z,12.44
2023-04-17T16:43:46.636Z,12.38
2023-04-17T16:49:18.445Z,12.06
2023-04-17T16:54:50.358Z,12.07
2023-04-17T17:00:22.057Z,12.32
2023-04-17T17:05:53.984Z,12.27
2023-04-17T17:11:25.282Z,12.18
2023-04-17T17:16:57.308Z,12.31
2023-04-17T17:22:28.803Z,12.42
2023-04-17T17:28:00.804Z,12.33
2023-04-17T17:33:32.795Z,12.23
2023-04-17T17:39:04.313Z,12.24
2023-04-17T17:44:42.151Z,12.16
2023-04-17T17:50:13.868Z,12.18
2023-04-17T17:55:45.782Z,12.14
2023-04-17T18:01:17.364Z,12.13
2023-04-17T18:06:49.295Z,12.03
2023-04-17T18:12:20.784Z,11.95
2023-04-17T18:17:52.819Z,11.84
2023-04-17T18:23:24.236Z,11.77
2023-04-17T18:28:56.182Z,11.67
2023-04-17T18:34:28.007Z,11.56
2023-04-17T18:39:59.377Z,11.62
2023-04-17T18:45:37.528Z,11.51
2023-04-17T18:51:09.267Z,11.43
2023-04-17T18:56:40.925Z,11.43
2023-04-17T19:02:12.852Z,11.51
2023-04-17T19:07:44.394Z,11.37
2023-04-17T19:13:16.124Z,11.38
2023-04-17T19:18:48.071Z,11.36
2023-04-17T19:24:19.754Z,11.23
2023-04-17T19:29:51.297Z,11.17
2023-04-17T19:35:23.019Z,11.14
2023-04-17T19:40:55.171Z,10.99
2023-04-17T19:46:32.872Z,10.93
2023-04-17T19:52:04.615Z,10.78
2023-04-17T19:57:36.540Z,10.78
2023-04-17T20:03:08.356Z,10.53
2023-04-17T20:08:39.743Z,10.43
2023-04-17T20:14:12.149Z,10.26
2023-04-17T20:19:43.260Z,10.1
2023-04-17T20:25:14.970Z,9.95
2023-04-17T20:30:46.847Z,9.9
2023-04-17T20:36:18.593Z,9.65
2023-04-17T20:41:50.120Z,9.55
2023-04-17T20:47:28.609Z,9.52
2023-04-17T20:53:00.199Z,9.51
2023-04-17T20:58:31.646Z,9.24
2023-04-17T21:04:03.444Z,9.05
2023-04-17T21:09:35.248Z,9.1
2023-04-17T21:15:07.063Z,9.09
2023-04-17T21:20:38.560Z,9.01
2023-04-17T21:26:10.550Z,8.83
2023-04-17T21:31:42.094Z,8.73
2023-04-17T21:37:14.004Z,8.81
2023-04-17T21:42:45.449Z,8.91
2023-04-17T21:48:23.589Z,9.03
2023-04-17T21:53:55.323Z,9.11
2023-04-17T21:59:27.190Z,9.13
2023-04-17T22:04:58.769Z,9.12
2023-04-17T22:10:30.456Z,9.09
2023-04-17T22:16:02.453Z,9.0
2023-04-17T22:21:34.165Z,9.14
2023-04-17T22:27:05.686Z,9.17
2023-04-17T22:32:37.405Z,9.21
2023-04-17T22:38:09.316Z,9.07
2023-04-17T22:43:40.842Z,9.25
2023-04-17T22:49:17.753Z,9.24
2023-04-17T22:54:48.662Z,9.26
2023-04-17T23:00:20.458Z,9.27
2023-04-17T23:05:52.351Z,9.3
2023-04-17T23:11:24.042Z,9.27
2023-04-17T23:16:55.585Z,9.31
2023-04-17T23:22:27.472Z,9.25
2023-04-17T23:27:58.993Z,9.21
2023-04-17T23:33:30.905Z,9.14
2023-04-17T23:39:02.474Z,9.18
2023-04-17T23:44:34.183Z,9.23
2023-04-17T23:50:10.480Z,9.16
2023-04-17T23:55:42.365Z,9.25
